createdAt,value
2022-11-19T00:00:25.280Z,8.09
2022-11-19T00:01:27.638Z,9.25
2022-11-19T00:02:30.083Z,8.67
2022-11-19T00:03:32.621Z,8.25
2022-11-19T00:04:34.983Z,8.82
2022-11-19T00:05:37.484Z,8.48
2022-11-19T00:06:40.039Z,8.39
2022-11-19T00:07:42.443Z,8.10
2022-11-19T00:08:44.894Z,8.46
2022-11-19T00:09:47.247Z,8.14
2022-11-19T00:10:49.849Z,9.31
2022-11-19T00:11:52.299Z,8.47
2022-11-19T00:12:54.718Z,9.75
2022-11-19T00:13:57.100Z,8.26
2022-11-19T00:14:59.458Z,8.35
2022-11-19T00:16:01.929Z,8.91
2022-11-19T00:17:04.291Z,8.92
2022-11-19T00:18:06.691Z,8.47
2022-11-19T00:19:09.055Z,8.82
2022-11-19T00:20:13.220Z,9.21
2022-11-19T00:21:15.631Z,9.83
2022-11-19T00:22:18.187Z,8.81
2022-11-19T00:23:20.580Z,9.29
2022-11-19T00:24:22.952Z,9.01
2022-11-19T00:25:25.328Z,9.53
2022-11-19T00:26:27.987Z,9.85
2022-11-19T00:27:30.446Z,8.71
2022-11-19T00:28:32.843Z,10.23
2022-11-19T00:29:35.195Z,9.88
2022-11-19T00:30:53.204Z,10.57
2022-11-19T00:31:42.025Z,10.18
2022-11-19T00:32:44.383Z,8.53
2022-11-19T00:33:46.821Z,10.46
2022-11-19T00:34:49.251Z,8.98
2022-11-19T00:35:51.656Z,9.29
2022-11-19T00:36:54.077Z,8.51
2022-11-19T00:37:56.451Z,10.21
2022-11-19T00:38:58.921Z,10.52
2022-11-19T00:40:01.434Z,10.39
2022-11-19T00:41:03.847Z,9.75
2022-11-19T00:42:06.200Z,9.89
2022-11-19T00:43:08.560Z,10.17
2022-11-19T00:44:10.942Z,11.09
2022-11-19T00:45:13.299Z,9.81
2022-11-19T00:46:15.951Z,9.97
2022-11-19T00:47:18.365Z,10.53
2022-11-19T00:48:20.830Z,10.58
2022-11-19T00:49:23.486Z,10.35
2022-11-19T00:50:26.008Z,8.47
2022-11-19T00:51:28.479Z,10.77
2022-11-19T00:52:30.941Z,11.29
2022-11-19T00:53:33.405Z,10.06
2022-11-19T00:54:35.911Z,10.85
2022-11-19T00:55:38.336Z,10.29
2022-11-19T00:56:40.804Z,10.43
2022-11-19T00:57:43.284Z,9.95
2022-11-19T00:58:45.636Z,9.47
2022-11-19T00:59:48.130Z,10.87
2022-11-19T01:00:50.929Z,10.31
2022-11-19T01:01:53.345Z,10.47
2022-11-19T01:02:55.697Z,10.71
2022-11-19T01:03:58.061Z,11.19
2022-11-19T01:05:00.451Z,9.99
2022-11-19T01:06:02.938Z,9.85
2022-11-19T01:07:05.431Z,8.91
2022-11-19T01:08:07.984Z,10.63
2022-11-19T01:09:10.336Z,10.81
2022-11-19T01:10:13.668Z,11.05
2022-11-19T01:11:16.114Z,10.66
2022-11-19T01:12:18.579Z,11.11
2022-11-19T01:13:21.048Z,10.25
2022-11-19T01:14:23.411Z,10.49
2022-11-19T01:15:25.839Z,11.23
2022-11-19T01:16:28.441Z,11.63
2022-11-19T01:17:30.797Z,11.59
2022-11-19T01:18:33.160Z,11.75
2022-11-19T01:19:35.608Z,11.32
2022-11-19T01:20:38.245Z,11.49
2022-11-19T01:21:40.860Z,10.67
2022-11-19T01:22:43.307Z,10.08
2022-11-19T01:23:45.661Z,11.45
2022-11-19T01:24:48.114Z,12.49
2022-11-19T01:25:50.597Z,11.53
2022-11-19T01:26:53.249Z,9.86
2022-11-19T01:27:55.602Z,12.77
2022-11-19T01:28:58.057Z,12.19
2022-11-19T01:30:00.546Z,11.59
2022-11-19T01:31:02.992Z,11.34
2022-11-19T01:32:05.450Z,11.97
2022-11-19T01:33:07.915Z,13.00
2022-11-19T01:34:10.397Z,11.57
2022-11-19T01:35:12.744Z,11.62
2022-11-19T01:36:15.131Z,12.40
2022-11-19T01:37:17.492Z,12.89
2022-11-19T01:38:19.865Z,11.15
2022-11-19T01:39:22.379Z,11.45
2022-11-19T01:40:25.168Z,12.22
2022-11-19T01:41:27.558Z,13.31
2022-11-19T01:42:29.913Z,11.86
2022-11-19T01:43:32.260Z,11.74
2022-11-19T01:44:34.635Z,11.57
2022-11-19T01:45:37.077Z,12.35
2022-11-19T01:46:39.677Z,12.84
2022-11-19T01:47:42.140Z,12.43
2022-11-19T01:48:44.491Z,13.54
2022-11-19T01:49:46.842Z,13.91
2022-11-19T01:50:49.415Z,13.95
2022-11-19T01:51:52.272Z,12.70
2022-11-19T01:52:54.718Z,13.02
2022-11-19T01:53:57.196Z,13.41
2022-11-19T01:54:59.724Z,13.45
2022-11-19T01:56:02.517Z,10.43
2022-11-19T01:57:05.053Z,12.86
2022-11-19T01:58:07.508Z,13.30
2022-11-19T01:59:09.950Z,12.63
2022-11-19T02:00:14.143Z,12.82
2022-11-19T02:01:16.651Z,13.37
2022-11-19T02:02:19.123Z,13.43
2022-11-19T02:03:21.480Z,12.59
2022-11-19T02:04:23.839Z,13.23
2022-11-19T02:05:26.291Z,12.43
2022-11-19T02:06:28.875Z,12.71
2022-11-19T02:07:31.572Z,13.84
2022-11-19T02:08:34.018Z,13.31
2022-11-19T02:09:36.381Z,12.66
2022-11-19T02:10:38.938Z,13.27
2022-11-19T02:11:41.293Z,11.57
2022-11-19T02:12:43.827Z,13.32
2022-11-19T02:13:46.274Z,13.03
2022-11-19T02:14:53.468Z,13.75
2022-11-19T02:15:52.897Z,12.82
2022-11-19T02:16:55.553Z,12.46
2022-11-19T02:17:57.942Z,12.76
2022-11-19T02:19:00.394Z,12.53
2022-11-19T02:20:02.973Z,12.52
2022-11-19T02:21:05.323Z,11.59
2022-11-19T02:22:07.675Z,11.96
2022-11-19T02:23:10.150Z,13.02
2022-11-19T02:24:12.505Z,13.37
2022-11-19T02:25:14.892Z,12.88
2022-11-19T02:26:17.743Z,12.39
2022-11-19T02:27:20.096Z,11.52
2022-11-19T02:28:22.516Z,13.03
2022-11-19T02:29:24.937Z,12.61
2022-11-19T02:30:27.486Z,12.45
2022-11-19T02:31:29.948Z,11.95
2022-11-19T02:32:32.398Z,13.31
2022-11-19T02:33:34.788Z,13.15
2022-11-19T02:34:37.150Z,11.43
2022-11-19T02:35:39.511Z,12.62
2022-11-19T02:36:42.262Z,12.69
2022-11-19T02:37:44.613Z,10.37
2022-11-19T02:38:47.004Z,11.17
2022-11-19T02:39:49.460Z,11.32
2022-11-19T02:40:52.015Z,10.75
2022-11-19T02:41:54.397Z,11.99
2022-11-19T02:42:56.754Z,12.61
2022-11-19T02:43:59.228Z,12.22
2022-11-19T02:45:01.633Z,13.78
2022-11-19T02:46:04.195Z,15.68
2022-11-19T02:47:06.559Z,12.85
2022-11-19T02:48:09.007Z,13.58
2022-11-19T02:49:11.492Z,15.99
2022-11-19T02:50:14.155Z,15.37
2022-11-19T02:51:16.561Z,15.67
2022-11-19T02:52:18.944Z,14.70
2022-11-19T02:53:21.303Z,13.52
2022-11-19T02:54:23.716Z,12.65
2022-11-19T02:55:26.069Z,12.75
2022-11-19T02:56:28.635Z,13.07
2022-11-19T02:57:31.096Z,12.73
2022-11-19T02:58:33.690Z,12.87
2022-11-19T02:59:36.230Z,14.43
2022-11-19T03:00:39.006Z,13.93
2022-11-19T03:01:41.580Z,13.45
2022-11-19T03:02:44.401Z,11.63
2022-11-19T03:03:46.847Z,12.48
2022-11-19T03:04:49.241Z,12.05
2022-11-19T03:05:51.698Z,12.69
2022-11-19T03:06:54.550Z,10.93
2022-11-19T03:07:57.182Z,12.82
2022-11-19T03:08:59.536Z,12.43
2022-11-19T03:10:01.967Z,12.49
2022-11-19T03:11:04.325Z,12.15
2022-11-19T03:12:06.839Z,13.80
2022-11-19T03:13:09.242Z,12.79
2022-11-19T03:14:11.760Z,11.71
2022-11-19T03:15:14.440Z,11.99
2022-11-19T03:16:16.891Z,11.95
2022-11-19T03:17:19.362Z,11.85
2022-11-19T03:18:21.719Z,12.74
2022-11-19T03:19:24.074Z,10.39
2022-11-19T03:20:26.662Z,12.43
2022-11-19T03:21:29.348Z,11.43
2022-11-19T03:22:31.783Z,12.45
2022-11-19T03:23:34.136Z,10.85
2022-11-19T03:24:36.523Z,13.04
2022-11-19T03:25:38.962Z,11.51
2022-11-19T03:26:41.437Z,11.69
2022-11-19T03:27:43.892Z,10.76
2022-11-19T03:28:46.249Z,11.99
2022-11-19T03:29:48.698Z,12.05
2022-11-19T03:30:51.285Z,11.95
2022-11-19T03:31:53.780Z,10.57
2022-11-19T03:32:56.136Z,11.73
2022-11-19T03:33:58.498Z,11.28
2022-11-19T03:35:00.949Z,10.48
2022-11-19T03:36:03.736Z,11.09
2022-11-19T03:37:06.188Z,8.99
2022-11-19T03:38:08.545Z,11.52
2022-11-19T03:39:10.904Z,10.48
2022-11-19T03:40:13.668Z,9.16
2022-11-19T03:41:16.052Z,10.13
2022-11-19T03:42:18.408Z,11.45
2022-11-19T03:43:20.810Z,9.57
2022-11-19T03:44:23.684Z,10.84
2022-11-19T03:45:26.172Z,11.49
2022-11-19T03:46:28.916Z,11.30
2022-11-19T03:47:31.399Z,11.21
2022-11-19T03:48:33.757Z,10.55
2022-11-19T03:49:36.214Z,10.92
2022-11-19T03:50:38.879Z,10.56
2022-11-19T03:51:41.377Z,9.89
2022-11-19T03:52:44.114Z,10.04
2022-11-19T03:53:46.565Z,9.17
2022-11-19T03:54:48.973Z,9.33
2022-11-19T03:55:51.328Z,10.86
2022-11-19T03:56:54.126Z,7.95
2022-11-19T03:57:56.501Z,10.37
2022-11-19T03:58:59.116Z,10.37
2022-11-19T04:00:01.571Z,9.73
2022-11-19T04:01:04.020Z,10.02
2022-11-19T04:02:06.639Z,8.79
2022-11-19T04:03:09.415Z,9.44
2022-11-19T04:04:11.872Z,10.12
2022-11-19T04:05:14.325Z,10.70
2022-11-19T04:06:17.087Z,9.01
2022-11-19T04:07:19.604Z,9.33
2022-11-19T04:08:22.027Z,9.99
2022-11-19T04:09:24.386Z,10.49
2022-11-19T04:10:26.839Z,9.89
2022-11-19T04:11:29.201Z,10.28
2022-11-19T04:12:31.581Z,10.10
2022-11-19T04:13:33.955Z,9.67
2022-11-19T04:14:36.446Z,10.17
2022-11-19T04:15:38.840Z,10.19
2022-11-19T04:16:41.604Z,8.73
2022-11-19T04:17:44.090Z,10.25
2022-11-19T04:18:46.450Z,10.43
2022-11-19T04:19:48.919Z,10.49
2022-11-19T04:20:51.675Z,9.62
2022-11-19T04:21:54.145Z,9.49
2022-11-19T04:22:56.661Z,8.48
2022-11-19T04:23:59.131Z,8.52
2022-11-19T04:25:01.575Z,8.99
2022-11-19T04:26:04.132Z,8.92
2022-11-19T04:27:06.587Z,10.34
2022-11-19T04:28:08.968Z,10.09
2022-11-19T04:29:11.468Z,9.50
2022-11-19T04:30:14.799Z,9.36
2022-11-19T04:31:18.151Z,8.77
2022-11-19T04:32:20.727Z,10.31
2022-11-19T04:33:23.122Z,9.35
2022-11-19T04:34:25.707Z,9.94
2022-11-19T04:35:28.172Z,9.16
2022-11-19T04:36:30.763Z,8.14
2022-11-19T04:37:33.216Z,10.32
2022-11-19T04:38:35.766Z,9.45
2022-11-19T04:39:38.123Z,10.20
2022-11-19T04:40:40.673Z,9.51
2022-11-19T04:41:43.028Z,11.71
2022-11-19T04:42:45.525Z,9.19
2022-11-19T04:43:47.947Z,10.01
2022-11-19T04:44:50.440Z,9.98
2022-11-19T04:45:52.792Z,11.09
2022-11-19T04:46:55.347Z,11.07
2022-11-19T04:47:57.703Z,11.71
2022-11-19T04:49:00.089Z,12.09
2022-11-19T04:50:02.736Z,9.35
2022-11-19T04:51:05.096Z,9.77
2022-11-19T04:52:07.556Z,10.73
2022-11-19T04:53:10.065Z,11.42
2022-11-19T04:54:12.549Z,11.97
2022-11-19T04:55:15.004Z,10.27
2022-11-19T04:56:17.514Z,11.33
2022-11-19T04:57:19.949Z,12.42
2022-11-19T04:58:22.389Z,12.37
2022-11-19T04:59:24.807Z,9.72
2022-11-19T05:00:27.582Z,10.71
2022-11-19T05:01:30.115Z,10.83
2022-11-19T05:02:32.635Z,11.96
2022-11-19T05:03:35.111Z,11.52
2022-11-19T05:04:37.589Z,12.47
2022-11-19T05:05:40.059Z,11.89
2022-11-19T05:06:42.633Z,10.03
2022-11-19T05:07:45.081Z,10.11
2022-11-19T05:08:47.543Z,9.83
2022-11-19T05:09:50.026Z,9.49
2022-11-19T05:10:52.427Z,10.74
2022-11-19T05:11:54.880Z,10.21
2022-11-19T05:12:57.286Z,10.12
2022-11-19T05:14:00.848Z,12.05
2022-11-19T05:15:03.266Z,8.69
2022-11-19T05:16:05.726Z,9.64
2022-11-19T05:17:08.081Z,9.17
2022-11-19T05:18:10.556Z,10.11
2022-11-19T05:19:13.017Z,9.58
2022-11-19T05:20:15.498Z,9.42
2022-11-19T05:21:17.851Z,9.66
2022-11-19T05:22:20.308Z,10.34
2022-11-19T05:23:22.687Z,9.55
2022-11-19T05:24:25.071Z,9.99
2022-11-19T05:25:27.575Z,8.79
2022-11-19T05:26:30.040Z,9.05
2022-11-19T05:27:32.399Z,10.93
2022-11-19T05:28:38.973Z,12.16
2022-11-19T05:29:39.040Z,9.19
2022-11-19T05:30:41.677Z,10.85
2022-11-19T05:31:44.374Z,8.01
2022-11-19T05:32:46.728Z,8.33
2022-11-19T05:33:49.090Z,9.34
2022-11-19T05:34:51.552Z,8.73
2022-11-19T05:35:53.956Z,7.93
2022-11-19T05:36:56.409Z,9.01
2022-11-19T05:37:58.876Z,9.45
2022-11-19T05:39:01.349Z,6.27
2022-11-19T05:40:03.814Z,8.19
2022-11-19T05:41:06.342Z,9.23
2022-11-19T05:42:08.696Z,9.05
2022-11-19T05:43:11.144Z,8.67
2022-11-19T05:44:13.498Z,9.61
2022-11-19T05:45:15.849Z,10.55
2022-11-19T05:46:18.547Z,6.99
2022-11-19T05:47:20.899Z,9.09
2022-11-19T05:48:23.302Z,8.08
2022-11-19T05:49:25.662Z,6.90
2022-11-19T05:50:28.328Z,6.19
2022-11-19T05:51:30.819Z,7.37
2022-11-19T05:52:33.175Z,6.01
2022-11-19T05:53:35.559Z,7.42
2022-11-19T05:54:37.964Z,7.25
2022-11-19T05:55:40.409Z,6.41
2022-11-19T05:56:43.124Z,6.77
2022-11-19T05:57:45.585Z,5.86
2022-11-19T05:58:47.936Z,5.66
2022-11-19T05:59:50.404Z,6.20
2022-11-19T06:28:15.728Z,4.52
2022-11-19T06:29:18.523Z,5.09
2022-11-19T06:30:21.740Z,5.16
2022-11-19T06:31:24.117Z,4.40
2022-11-19T06:32:26.604Z,4.46
2022-11-19T06:33:28.987Z,5.03
2022-11-19T06:34:31.435Z,4.93
2022-11-19T06:35:33.881Z,7.06
2022-11-19T06:36:41.836Z,5.02
2022-11-19T06:37:40.934Z,3.47
2022-11-19T06:38:43.429Z,3.67
2022-11-19T06:39:45.892Z,4.37
2022-11-19T06:40:48.459Z,3.99
2022-11-19T06:41:50.826Z,4.49
2022-11-19T06:42:53.189Z,3.95
2022-11-19T06:43:55.599Z,3.49
2022-11-19T06:44:57.957Z,4.28
2022-11-19T06:46:00.311Z,3.74
2022-11-19T06:47:02.665Z,4.63
2022-11-19T06:48:05.115Z,4.88
2022-11-19T06:49:07.886Z,4.65
2022-11-19T06:50:11.840Z,4.59
2022-11-19T06:51:14.283Z,4.31
2022-11-19T06:52:16.663Z,4.60
2022-11-19T06:53:19.020Z,3.79
2022-11-19T06:54:21.509Z,4.13
2022-11-19T06:55:23.858Z,4.93
2022-11-19T06:56:26.766Z,6.11
2022-11-19T06:57:29.291Z,7.22
2022-11-19T06:58:31.749Z,5.04
2022-11-19T06:59:34.139Z,4.77
2022-11-19T07:00:36.703Z,5.35
2022-11-19T07:01:39.278Z,4.94
2022-11-19T07:02:41.710Z,4.55
2022-11-19T07:03:44.074Z,4.69
2022-11-19T07:04:46.473Z,4.67
2022-11-19T07:05:48.852Z,4.32
2022-11-19T07:06:51.738Z,3.94
2022-11-19T07:07:56.715Z,4.78
2022-11-19T07:08:58.389Z,3.75
2022-11-19T07:10:00.859Z,4.43
2022-11-19T07:11:03.337Z,4.21
2022-11-19T07:12:05.783Z,3.50
2022-11-19T07:13:08.129Z,3.59
2022-11-19T07:14:10.531Z,3.91
2022-11-19T07:15:12.973Z,3.49
2022-11-19T07:16:15.458Z,3.31
2022-11-19T07:17:17.812Z,3.02
2022-11-19T07:18:20.177Z,3.73
2022-11-19T07:19:22.742Z,2.83
2022-11-19T07:20:25.923Z,2.94
2022-11-19T07:21:28.277Z,2.79
2022-11-19T07:22:30.725Z,2.95
2022-11-19T07:23:33.074Z,2.44
2022-11-19T07:24:35.430Z,2.98
2022-11-19T07:25:37.817Z,2.40
2022-11-19T07:26:40.570Z,2.94
2022-11-19T07:27:42.926Z,2.36
2022-11-19T07:28:45.284Z,2.97
2022-11-19T07:29:47.646Z,2.28
2022-11-19T07:30:50.538Z,2.49
2022-11-19T07:31:52.890Z,2.37
2022-11-19T07:32:55.251Z,2.75
2022-11-19T07:33:57.691Z,2.95
2022-11-19T07:35:00.049Z,3.01
2022-11-19T07:36:02.528Z,2.65
2022-11-19T07:37:04.881Z,2.86
2022-11-19T07:38:07.228Z,3.10
2022-11-19T07:39:09.631Z,3.62
2022-11-19T07:40:12.589Z,3.91
2022-11-19T07:41:14.974Z,3.30
2022-11-19T07:42:17.327Z,2.83
2022-11-19T07:43:19.693Z,3.19
2022-11-19T07:44:22.139Z,3.74
2022-11-19T07:45:24.506Z,2.99
2022-11-19T07:46:27.087Z,3.05
2022-11-19T07:47:29.467Z,3.54
2022-11-19T07:48:31.910Z,3.16
2022-11-19T07:49:34.275Z,3.27
2022-11-19T07:50:37.072Z,3.14
2022-11-19T07:51:39.467Z,3.17
2022-11-19T07:52:41.923Z,3.24
2022-11-19T07:53:44.279Z,3.46
2022-11-19T07:54:46.734Z,2.77
2022-11-19T07:55:49.115Z,2.77
2022-11-19T07:56:51.906Z,2.49
2022-11-19T07:57:54.360Z,3.24
2022-11-19T07:58:56.709Z,3.41
2022-11-19T07:59:59.061Z,3.02
2022-11-19T08:01:01.607Z,3.85
2022-11-19T08:02:04.353Z,3.19
2022-11-19T08:03:06.974Z,2.48
2022-11-19T08:04:09.425Z,2.49
2022-11-19T08:05:11.922Z,2.53
2022-11-19T08:06:14.658Z,4.44
2022-11-19T08:07:17.147Z,3.67
2022-11-19T08:08:19.702Z,3.01
2022-11-19T08:09:22.488Z,2.99
2022-11-19T08:10:30.412Z,2.89
2022-11-19T08:11:29.315Z,3.01
2022-11-19T08:12:31.789Z,3.13
2022-11-19T08:13:34.256Z,3.25
2022-11-19T08:14:36.705Z,2.71
2022-11-19T08:15:39.095Z,2.94
2022-11-19T08:16:41.656Z,2.87
2022-11-19T08:17:44.283Z,3.59
2022-11-19T08:18:46.635Z,3.43
2022-11-19T08:19:48.985Z,3.44
2022-11-19T08:20:51.746Z,3.05
2022-11-19T08:21:54.100Z,3.79
2022-11-19T08:22:56.486Z,3.17
2022-11-19T08:23:59.150Z,2.69
2022-11-19T08:25:01.595Z,2.63
2022-11-19T08:26:04.159Z,3.19
2022-11-19T08:27:06.644Z,3.71
2022-11-19T08:28:09.088Z,3.09
2022-11-19T08:29:15.910Z,2.78
2022-11-19T08:30:16.124Z,3.04
2022-11-19T08:31:18.474Z,2.33
2022-11-19T08:32:20.829Z,2.55
2022-11-19T08:33:23.315Z,2.81
2022-11-19T08:34:25.765Z,2.29
2022-11-19T08:35:28.121Z,2.94
2022-11-19T08:36:30.591Z,2.47
2022-11-19T08:37:32.954Z,2.72
2022-11-19T08:38:38.578Z,2.23
2022-11-19T08:39:39.761Z,2.31
2022-11-19T08:40:42.220Z,4.26
2022-11-19T08:41:44.576Z,3.28
2022-11-19T08:42:46.927Z,3.51
2022-11-19T08:43:49.440Z,3.35
2022-11-19T08:44:51.896Z,2.12
2022-11-19T08:45:54.270Z,2.39
2022-11-19T08:46:56.925Z,2.67
2022-11-19T08:47:59.375Z,1.95
2022-11-19T08:49:01.977Z,2.37
2022-11-19T08:50:04.643Z,2.75
2022-11-19T08:51:07.110Z,2.87
2022-11-19T08:52:09.475Z,3.12
2022-11-19T08:53:12.058Z,2.75
2022-11-19T08:54:14.554Z,3.96
2022-11-19T08:55:16.910Z,2.63
2022-11-19T08:56:19.363Z,2.31
2022-11-19T08:57:21.746Z,1.72
2022-11-19T08:58:24.189Z,2.39
2022-11-19T08:59:26.667Z,2.67
2022-11-19T09:00:29.293Z,2.13
2022-11-19T09:01:31.879Z,2.37
2022-11-19T09:02:34.243Z,2.29
2022-11-19T09:03:36.890Z,2.28
2022-11-19T09:04:39.295Z,2.20
2022-11-19T09:05:41.650Z,2.65
2022-11-19T09:06:44.591Z,3.80
2022-11-19T09:07:46.978Z,4.12
2022-11-19T09:08:49.333Z,3.25
2022-11-19T09:09:51.720Z,3.56
2022-11-19T09:10:54.277Z,5.43
2022-11-19T09:11:56.738Z,4.92
2022-11-19T09:12:59.190Z,2.61
2022-11-19T09:14:01.539Z,2.71
2022-11-19T09:15:04.060Z,2.56
2022-11-19T09:16:06.717Z,2.25
2022-11-19T09:17:09.069Z,2.85
2022-11-19T09:18:11.421Z,3.03
2022-11-19T09:19:13.785Z,3.39
2022-11-19T09:20:16.620Z,2.85
2022-11-19T09:21:18.981Z,2.07
2022-11-19T09:22:21.389Z,1.85
2022-11-19T09:23:23.831Z,2.87
2022-11-19T09:24:26.279Z,1.99
2022-11-19T09:25:28.680Z,1.95
2022-11-19T09:26:31.359Z,1.77
2022-11-19T09:27:33.816Z,2.14
2022-11-19T09:28:36.279Z,1.72
2022-11-19T09:29:38.749Z,1.85
2022-11-19T09:30:41.519Z,1.66
2022-11-19T09:31:43.938Z,1.90
2022-11-19T09:32:46.290Z,1.75
2022-11-19T09:33:48.691Z,2.27
2022-11-19T09:34:51.203Z,2.85
2022-11-19T09:35:53.715Z,1.16
2022-11-19T09:36:56.514Z,2.24
2022-11-19T09:37:58.972Z,2.27
2022-11-19T09:39:01.334Z,2.61
2022-11-19T09:40:03.798Z,2.01
2022-11-19T09:41:06.210Z,1.99
2022-11-19T09:42:08.582Z,2.89
2022-11-19T09:43:15.197Z,2.59
2022-11-19T09:44:15.298Z,2.28
2022-11-19T09:45:17.666Z,1.71
2022-11-19T09:46:20.340Z,1.52
2022-11-19T09:47:22.728Z,2.54
2022-11-19T09:48:25.186Z,2.09
2022-11-19T09:49:27.563Z,2.26
2022-11-19T09:50:30.215Z,2.40
2022-11-19T09:51:32.707Z,2.27
2022-11-19T09:52:35.190Z,2.74
2022-11-19T09:53:37.559Z,2.47
2022-11-19T09:54:39.970Z,1.52
2022-11-19T09:55:42.441Z,2.11
2022-11-19T09:56:45.047Z,1.75
2022-11-19T09:57:47.490Z,2.13
2022-11-19T09:58:49.940Z,2.05
2022-11-19T09:59:52.439Z,1.71
2022-11-19T10:00:55.074Z,1.73
2022-11-19T10:01:57.858Z,1.91
2022-11-19T10:03:00.224Z,2.96
2022-11-19T10:04:02.670Z,2.19
2022-11-19T10:05:05.034Z,1.72
2022-11-19T10:06:08.086Z,2.11
2022-11-19T10:07:10.932Z,1.98
2022-11-19T10:08:13.385Z,2.73
2022-11-19T10:09:15.846Z,3.64
2022-11-19T10:10:18.527Z,3.29
2022-11-19T10:11:20.907Z,2.85
2022-11-19T10:12:23.412Z,1.78
2022-11-19T10:13:25.833Z,1.38
2022-11-19T10:14:28.292Z,1.87
2022-11-19T10:15:36.024Z,1.98
2022-11-19T10:16:35.112Z,1.74
2022-11-19T10:17:37.506Z,2.35
2022-11-19T10:18:39.868Z,1.99
2022-11-19T10:19:42.233Z,2.57
2022-11-19T10:20:44.907Z,2.80
2022-11-19T10:21:47.267Z,2.23
2022-11-19T10:22:54.215Z,1.70
2022-11-19T10:23:53.945Z,1.33
2022-11-19T10:24:56.404Z,1.90
2022-11-19T10:25:58.764Z,1.29
2022-11-19T10:27:07.240Z,2.02
2022-11-19T10:28:05.766Z,2.30
2022-11-19T10:29:08.119Z,2.79
2022-11-19T10:30:11.693Z,3.24
2022-11-19T10:31:14.072Z,3.35
2022-11-19T10:32:16.527Z,5.57
2022-11-19T10:33:18.917Z,4.51
2022-11-19T10:34:21.281Z,3.07
2022-11-19T10:35:23.729Z,3.26
2022-11-19T10:36:26.429Z,3.34
2022-11-19T10:37:28.787Z,2.64
2022-11-19T10:38:31.183Z,3.49
2022-11-19T10:39:33.542Z,3.05
2022-11-19T10:40:36.197Z,2.79
2022-11-19T10:41:38.657Z,2.73
2022-11-19T10:42:41.010Z,3.53
2022-11-19T10:43:43.394Z,4.22
2022-11-19T10:44:45.854Z,2.98
2022-11-19T10:45:48.210Z,3.10
2022-11-19T10:46:50.671Z,2.55
2022-11-19T10:47:53.025Z,2.99
2022-11-19T10:48:55.674Z,2.75
2022-11-19T10:49:58.113Z,2.68
2022-11-19T10:51:00.772Z,3.01
2022-11-19T10:52:03.131Z,3.37
2022-11-19T10:53:05.594Z,3.25
2022-11-19T10:54:08.101Z,3.11
2022-11-19T10:55:10.449Z,3.04
2022-11-19T10:56:13.109Z,3.19
2022-11-19T10:57:15.566Z,2.77
2022-11-19T10:58:17.929Z,2.83
2022-11-19T10:59:20.523Z,3.05
2022-11-19T11:00:23.583Z,4.22
2022-11-19T11:01:26.099Z,3.66
2022-11-19T11:02:28.831Z,4.03
2022-11-19T11:03:31.179Z,5.32
2022-11-19T11:04:33.581Z,3.44
2022-11-19T11:05:36.273Z,4.65
2022-11-19T11:06:38.888Z,4.89
2022-11-19T11:07:44.408Z,5.66
2022-11-19T11:08:45.509Z,3.68
2022-11-19T11:09:48.020Z,2.89
2022-11-19T11:10:50.467Z,2.99
2022-11-19T11:11:52.833Z,3.54
2022-11-19T11:12:55.444Z,4.12
2022-11-19T11:13:57.822Z,4.65
2022-11-19T11:15:00.258Z,3.84
2022-11-19T11:16:02.981Z,3.59
2022-11-19T11:17:05.343Z,2.85
2022-11-19T11:18:07.702Z,2.73
2022-11-19T11:19:10.152Z,4.14
2022-11-19T11:20:12.725Z,3.06
2022-11-19T11:21:15.080Z,2.67
2022-11-19T11:22:17.433Z,2.25
2022-11-19T11:23:19.795Z,2.37
2022-11-19T11:24:22.275Z,2.61
2022-11-19T11:25:24.671Z,2.67
2022-11-19T11:26:27.218Z,3.57
2022-11-19T11:27:29.599Z,3.44
2022-11-19T11:28:31.947Z,2.93
2022-11-19T11:29:34.300Z,3.50
2022-11-19T11:30:36.987Z,3.68
2022-11-19T11:31:39.441Z,3.94
2022-11-19T11:32:41.902Z,3.45
2022-11-19T11:33:44.345Z,3.11
2022-11-19T11:34:46.696Z,2.86
2022-11-19T11:35:49.175Z,3.01
2022-11-19T11:36:51.718Z,2.87
2022-11-19T11:37:54.073Z,3.23
2022-11-19T11:38:56.545Z,2.51
2022-11-19T11:39:58.900Z,2.34
2022-11-19T11:41:41.775Z,2.91
2022-11-19T11:42:06.894Z,2.99
2022-11-19T11:43:09.935Z,2.85
2022-11-19T11:44:12.298Z,3.13
2022-11-19T11:45:14.753Z,2.49
2022-11-19T11:46:17.372Z,2.97
2022-11-19T11:47:19.794Z,3.13
2022-11-19T11:48:22.273Z,2.78
2022-11-19T11:49:24.924Z,3.05
2022-11-19T11:50:27.968Z,2.63
2022-11-19T11:51:30.361Z,2.75
2022-11-19T11:52:32.716Z,3.51
2022-11-19T11:53:35.163Z,3.21
2022-11-19T11:54:37.517Z,3.23
2022-11-19T11:55:39.970Z,2.85
2022-11-19T11:56:42.771Z,2.96
2022-11-19T11:57:45.215Z,3.11
2022-11-19T11:58:47.576Z,3.29
2022-11-19T11:59:49.931Z,3.11
2022-11-19T12:00:52.480Z,3.35
2022-11-19T12:01:54.922Z,3.18
2022-11-19T12:02:57.561Z,2.72
2022-11-19T12:04:00.018Z,3.01
2022-11-19T12:05:02.608Z,2.89
2022-11-19T12:06:05.610Z,3.01
2022-11-19T12:07:08.129Z,3.37
2022-11-19T12:08:10.872Z,3.18
2022-11-19T12:09:13.225Z,2.37
2022-11-19T12:10:16.179Z,2.42
2022-11-19T12:11:18.530Z,2.86
2022-11-19T12:12:20.968Z,3.68
2022-11-19T12:13:23.411Z,3.30
2022-11-19T12:14:25.772Z,2.97
2022-11-19T12:15:28.125Z,2.93
2022-11-19T12:16:30.686Z,3.67
2022-11-19T12:17:33.181Z,3.17
2022-11-19T12:18:35.651Z,3.51
2022-11-19T12:19:38.101Z,3.39
2022-11-19T12:20:40.774Z,3.75
2022-11-19T12:21:43.276Z,3.97
2022-11-19T12:22:45.666Z,4.49
2022-11-19T12:23:48.111Z,3.77
2022-11-19T12:24:50.499Z,4.43
2022-11-19T12:25:52.934Z,4.19
2022-11-19T12:26:55.429Z,4.17
2022-11-19T12:27:57.921Z,4.26
2022-11-19T12:29:00.297Z,4.09
2022-11-19T12:30:02.953Z,4.01
2022-11-19T12:31:05.306Z,4.82
2022-11-19T12:32:07.667Z,4.54
2022-11-19T12:33:10.250Z,4.43
2022-11-19T12:34:12.708Z,4.13
2022-11-19T12:35:15.058Z,4.28
2022-11-19T12:36:18.050Z,4.04
2022-11-19T12:37:20.479Z,3.31
2022-11-19T12:38:22.859Z,4.19
2022-11-19T12:39:25.316Z,3.84
2022-11-19T12:40:31.118Z,4.41
2022-11-19T12:41:32.033Z,4.28
2022-11-19T12:42:34.557Z,4.06
2022-11-19T12:43:37.017Z,3.91
2022-11-19T12:44:39.413Z,4.45
2022-11-19T12:45:41.900Z,4.05
2022-11-19T12:46:44.351Z,4.69
2022-11-19T12:47:46.716Z,4.63
2022-11-19T12:48:49.210Z,4.45
2022-11-19T12:49:51.598Z,4.63
2022-11-19T12:50:54.161Z,4.49
2022-11-19T12:51:56.667Z,4.79
2022-11-19T12:52:59.144Z,6.19
2022-11-19T12:54:01.603Z,4.67
2022-11-19T12:55:03.954Z,5.40
2022-11-19T12:56:06.911Z,4.53
2022-11-19T12:57:09.259Z,5.47
2022-11-19T12:58:11.716Z,4.91
2022-11-19T12:59:14.163Z,4.75
2022-11-19T13:00:16.620Z,6.43
2022-11-19T13:01:19.129Z,6.32
2022-11-19T13:02:22.029Z,5.06
2022-11-19T13:03:24.393Z,4.99
2022-11-19T13:04:26.882Z,5.02
2022-11-19T13:05:29.233Z,5.71
2022-11-19T13:06:31.790Z,6.65
2022-11-19T13:07:34.337Z,8.61
2022-11-19T13:08:36.803Z,8.25
2022-11-19T13:09:39.295Z,8.09
2022-11-19T13:10:42.152Z,9.77
2022-11-19T13:11:44.609Z,9.30
2022-11-19T13:12:47.159Z,7.86
2022-11-19T13:13:49.523Z,6.95
2022-11-19T13:14:54.834Z,8.41
2022-11-19T13:15:56.282Z,10.77
2022-11-19T13:16:59.086Z,10.06
2022-11-19T13:18:01.439Z,9.28
2022-11-19T13:19:03.795Z,8.40
2022-11-19T13:20:06.525Z,7.44
2022-11-19T13:21:09.027Z,7.68
2022-11-19T13:22:11.527Z,8.99
2022-11-19T13:23:13.957Z,8.23
2022-11-19T13:24:16.407Z,8.65
2022-11-19T13:25:18.905Z,8.12
2022-11-19T13:26:21.563Z,9.15
2022-11-19T13:27:24.037Z,9.53
2022-11-19T13:28:26.401Z,10.15
2022-11-19T13:29:28.785Z,12.25
2022-11-19T13:30:31.286Z,11.52
2022-11-19T13:31:33.651Z,14.17
2022-11-19T13:32:36.135Z,12.84
2022-11-19T13:33:38.489Z,16.35
2022-11-19T13:34:40.893Z,14.29
2022-11-19T13:35:43.370Z,12.98
2022-11-19T13:36:45.727Z,16.17
2022-11-19T13:37:48.116Z,11.43
2022-11-19T13:38:50.469Z,14.39
2022-11-19T13:39:52.863Z,13.73
2022-11-19T13:40:55.604Z,13.65
2022-11-19T13:41:58.090Z,13.97
2022-11-19T13:43:17.560Z,16.05
2022-11-19T13:44:04.857Z,16.85
2022-11-19T13:45:07.241Z,13.81
2022-11-19T13:46:10.890Z,12.99
2022-11-19T13:47:13.292Z,13.42
2022-11-19T13:48:15.724Z,11.74
2022-11-19T13:49:18.484Z,14.04
2022-11-19T13:50:21.398Z,11.73
2022-11-19T13:51:24.343Z,12.61
2022-11-19T13:52:26.712Z,14.79
2022-11-19T13:53:29.157Z,16.90
2022-11-19T13:54:31.511Z,10.63
2022-11-19T13:55:33.894Z,10.61
2022-11-19T13:56:36.512Z,7.35
2022-11-19T13:57:38.983Z,8.80
2022-11-19T13:58:41.447Z,5.90
2022-11-19T13:59:44.220Z,8.61
2022-11-19T14:00:48.120Z,7.55
2022-11-19T14:01:50.733Z,4.36
2022-11-19T14:02:53.526Z,6.46
2022-11-19T14:03:56.004Z,5.73
2022-11-19T14:04:58.492Z,6.03
2022-11-19T14:06:01.255Z,6.11
2022-11-19T14:07:03.801Z,4.24
2022-11-19T14:08:06.507Z,4.24
2022-11-19T14:09:08.975Z,5.36
2022-11-19T14:10:12.768Z,8.68